Time;durP1;ratioP1;P1;durP2;ratioP2;P2;SDS_P1;SDS_P2;PMS_P1;PMS_P2;Temp;Humidity;BMP_temperature;BMP_pressure;BME280_temperature;BME280_humidity;BME280_pressure;Samples;Min_cycle;Max_cycle;Signal;HPM_P1;HPM_P2
2021/03/05 00:00:21;;;;;;;28.92;15.63;;;5.70;99.90;;;;;;4919138;29;20044;-88
2021/03/05 00:02:51;;;;;;;24.75;15.43;;;5.70;99.90;;;;;;4936898;29;20075;-88
2021/03/05 00:05:29;;;;;;;24.30;15.80;;;5.70;99.90;;;;;;4935023;29;20107;-89
2021/03/05 00:07:56;;;;;;;24.38;15.57;;;5.70;99.90;;;;;;4937220;29;20416;-88
2021/03/05 00:10:28;;;;;;;26.77;15.50;;;5.70;99.90;;;;;;4929124;29;20066;-89
2021/03/05 00:12:55;;;;;;;;;;;5.70;99.90;;;;;;4933547;29;20055;-89
2021/03/05 00:15:23;;;;;;;23.65;14.70;;;5.70;99.90;;;;;;4930945;29;20027;-89
2021/03/05 00:17:50;;;;;;;24.52;15.40;;;5.70;99.90;;;;;;4936790;29;20063;-88
2021/03/05 00:20:21;;;;;;;24.98;16.15;;;5.70;99.90;;;;;;4947270;29;20047;-89
2021/03/05 00:22:50;;;;;;;26.02;16.00;;;5.70;99.90;;;;;;4942988;29;20071;-89
2021/03/05 00:25:17;;;;;;;25.20;15.70;;;5.70;99.90;;;;;;4934065;29;20481;-88
2021/03/05 00:27:43;;;;;;;26.15;16.58;;;5.70;99.90;;;;;;4938088;29;20126;-88
2021/03/05 00:30:11;;;;;;;29.02;17.58;;;5.70;99.90;;;;;;4936950;29;20098;-88
2021/03/05 00:32:40;;;;;;;29.40;18.33;;;5.70;99.90;;;;;;4936132;29;20047;-89
2021/03/05 00:35:10;;;;;;;30.90;17.83;;;5.70;99.90;;;;;;4932317;29;20048;-89
2021/03/05 00:37:37;;;;;;;27.95;17.50;;;5.70;99.90;;;;;;4928138;29;20481;-88
2021/03/05 00:40:06;;;;;;;30.73;18.90;;;5.70;99.90;;;;;;4915934;29;20062;-90
2021/03/05 00:42:42;;;;;;;29.00;17.52;;;5.80;99.90;;;;;;4929541;29;20079;-90
2021/03/05 00:45:12;;;;;;;29.17;18.80;;;5.80;99.90;;;;;;4929072;29;20051;-89
2021/03/05 00:47:41;;;;;;;30.90;18.27;;;5.80;99.90;;;;;;4936304;29;20083;-89
2021/03/05 00:50:09;;;;;;;50.50;31.50;;;5.80;99.90;;;;;;4933332;29;20103;-89
2021/03/05 00:52:40;;;;;;;52.13;33.40;;;5.70;99.90;;;;;;4936867;29;20052;-89
2021/03/05 00:55:09;;;;;;;55.00;34.25;;;5.50;99.90;;;;;;4937517;29;20381;-88
2021/03/05 00:57:40;;;;;;;45.83;28.33;;;5.30;99.90;;;;;;4924259;29;20091;-91
2021/03/05 01:00:13;;;;;;;49.78;30.00;;;5.00;99.90;;;;;;4909551;29;20122;-90
2021/03/05 01:02:40;;;;;;;50.35;30.42;;;4.70;99.90;;;;;;4924652;29;20465;-89
2021/03/05 01:05:07;;;;;;;51.97;30.40;;;4.60;99.90;;;;;;4919216;29;20079;-88
2021/03/05 01:07:36;;;;;;;50.42;29.02;;;4.40;99.90;;;;;;4922424;29;20127;-89
2021/03/05 01:10:08;;;;;;;55.83;31.45;;;4.30;99.90;;;;;;4917687;29;20478;-87
2021/03/05 01:12:35;;;;;;;55.75;31.42;;;4.20;99.90;;;;;;4917819;29;20186;-88
2021/03/05 01:15:06;;;;;;;54.80;30.25;;;4.00;99.90;;;;;;4916466;29;20470;-87
2021/03/05 01:17:35;;;;;;;60.40;31.25;;;3.90;99.90;;;;;;4891662;29;20501;-89
2021/03/05 01:20:12;;;;;;;61.08;32.40;;;3.80;99.90;;;;;;4857785;29;20052;-90
2021/03/05 01:22:41;;;;;;;59.33;33.00;;;3.70;99.90;;;;;;4909013;29;20127;-90
2021/03/05 01:25:16;;;;;;;63.00;35.30;;;3.60;99.90;;;;;;4915385;29;20367;-88
2021/03/05 01:27:45;;;;;;;72.00;38.22;;;3.50;99.90;;;;;;4915540;29;20048;-88
2021/03/05 01:30:12;;;;;;;70.57;35.83;;;3.40;99.90;;;;;;4904067;29;20087;-89
2021/03/05 01:32:41;;;;;;;74.28;38.03;;;3.40;99.90;;;;;;4900319;29;20136;-89
2021/03/05 01:35:11;;;;;;;82.78;39.42;;;3.40;99.90;;;;;;4910019;29;20048;-89
2021/03/05 01:37:40;;;;;;;75.60;38.95;;;3.30;99.90;;;;;;4898560;29;20044;-89
2021/03/05 01:40:13;;;;;;;81.32;41.15;;;3.30;99.90;;;;;;4916604;29;20056;-89
2021/03/05 01:42:42;;;;;;;74.25;36.97;;;3.30;99.90;;;;;;4890865;29;20052;-87
2021/03/05 01:45:17;;;;;;;77.57;38.72;;;3.30;99.90;;;;;;4912460;29;20076;-89
2021/03/05 01:47:53;;;;;;;82.95;40.25;;;3.20;99.90;;;;;;4913891;29;20048;-89
2021/03/05 01:50:31;;;;;;;80.05;37.50;;;3.20;99.90;;;;;;4910154;29;20048;-89
2021/03/05 01:53:00;;;;;;;87.93;41.10;;;3.20;99.90;;;;;;4911762;29;20138;-89
2021/03/05 01:55:27;;;;;;;93.78;43.00;;;3.10;99.90;;;;;;4916054;29;20044;-88
2021/03/05 01:57:55;;;;;;;91.45;41.45;;;3.10;99.90;;;;;;4905083;29;20103;-90
2021/03/05 02:00:45;;;;;;;92.65;42.58;;;3.10;99.90;;;;;;4896814;29;20072;-90
2021/03/05 02:03:11;;;;;;;83.68;39.20;;;3.10;99.90;;;;;;4903965;29;20133;-88
2021/03/05 02:05:39;;;;;;;80.70;38.78;;;3.00;99.90;;;;;;4912510;29;20048;-89
2021/03/05 02:08:09;;;;;;;80.15;36.08;;;3.10;99.90;;;;;;4908511;29;20052;-88
2021/03/05 02:10:39;;;;;;;67.55;33.40;;;3.10;99.90;;;;;;4913016;29;20249;-90
2021/03/05 02:13:07;;;;;;;69.22;32.63;;;3.10;99.90;;;;;;4934464;29;20079;-87
2021/03/05 02:15:38;;;;;;;71.45;34.75;;;3.00;99.90;;;;;;4932787;29;20138;-88
2021/03/05 02:18:42;;;;;;;75.25;36.30;;;3.00;99.90;;;;;;4928846;29;20070;-87
2021/03/05 02:21:51;;;;;;;76.28;36.70;;;3.00;99.90;;;;;;4937151;29;20110;-87
2021/03/05 02:24:33;;;;;;;72.57;35.40;;;2.90;99.90;;;;;;4920787;29;20079;-89
2021/03/05 02:27:07;;;;;;;83.88;39.00;;;2.80;99.90;;;;;;4932303;29;20047;-87
2021/03/05 02:30:11;;;;;;;92.43;40.78;;;2.80;99.90;;;;;;4934530;29;20114;-88
2021/03/05 02:32:39;;;;;;;99.78;42.92;;;2.80;99.90;;;;;;4920254;29;20426;-90
2021/03/05 02:35:08;;;;;;;94.82;42.30;;;2.80;99.90;;;;;;4935345;29;20143;-89
2021/03/05 02:37:39;;;;;;;96.78;42.20;;;2.80;99.90;;;;;;4919785;29;20130;-90
2021/03/05 02:40:08;;;;;;;87.50;41.30;;;2.80;99.90;;;;;;4926480;29;20118;-87
2021/03/05 02:42:52;;;;;;;89.57;41.33;;;2.70;99.90;;;;;;4932610;29;20115;-88
2021/03/05 02:45:27;;;;;;;90.80;41.97;;;2.70;99.90;;;;;;4926056;29;20147;-90
2021/03/05 02:47:59;;;;;;;95.32;41.65;;;2.60;99.90;;;;;;4931351;29;20434;-89
2021/03/05 02:50:32;;;;;;;91.70;42.42;;;2.60;99.90;;;;;;4911210;29;20179;-88
2021/03/05 02:53:06;;;;;;;90.18;41.67;;;2.60;99.90;;;;;;4931129;29;20082;-88
2021/03/05 02:55:35;;;;;;;89.25;42.85;;;2.60;99.90;;;;;;4932016;29;20130;-89
2021/03/05 02:58:06;;;;;;;98.40;41.78;;;2.50;99.90;;;;;;4922319;29;20453;-89
2021/03/05 03:00:36;;;;;;;99.88;42.17;;;2.40;99.90;;;;;;4918708;29;20127;-89
2021/03/05 03:03:03;;;;;;;110.22;46.30;;;2.30;99.90;;;;;;4926691;29;20047;-89
2021/03/05 03:05:33;;;;;;;109.85;44.63;;;2.20;99.90;;;;;;4935407;29;20071;-89
2021/03/05 03:08:00;;;;;;;112.95;46.72;;;2.20;99.90;;;;;;4916081;29;20476;-89
2021/03/05 03:10:31;;;;;;;106.20;44.75;;;2.20;99.90;;;;;;4917185;29;20149;-89
2021/03/05 03:12:59;;;;;;;109.47;46.35;;;2.00;99.90;;;;;;4921501;29;20130;-89
2021/03/05 03:15:30;;;;;;;119.05;44.97;;;1.90;99.90;;;;;;4932700;29;20418;-88
2021/03/05 03:18:00;;;;;;;124.72;47.42;;;1.70;99.90;;;;;;4924772;29;20056;-89
2021/03/05 03:20:27;;;;;;;112.82;44.60;;;1.70;99.90;;;;;;4920620;29;20371;-88
2021/03/05 03:22:59;;;;;;;110.32;44.15;;;1.50;99.90;;;;;;4917670;29;20103;-88
2021/03/05 03:25:28;;;;;;;133.32;49.10;;;1.50;99.90;;;;;;4923998;29;20062;-87
2021/03/05 03:27:56;;;;;;;143.70;51.78;;;1.50;99.90;;;;;;4921989;29;20120;-87
2021/03/05 03:30:23;;;;;;;158.50;53.35;;;1.60;99.90;;;;;;4934829;29;20104;-87
2021/03/05 03:32:54;;;;;;;159.15;56.92;;;1.70;99.90;;;;;;4925885;29;20130;-87
2021/03/05 03:35:22;;;;;;;147.68;53.85;;;1.70;99.90;;;;;;4924544;29;20079;-87
2021/03/05 03:38:12;;;;;;;147.00;50.78;;;1.80;99.90;;;;;;4926486;29;20059;-87
2021/03/05 03:40:40;;;;;;;131.38;46.97;;;1.90;99.90;;;;;;4929113;29;20223;-87
2021/03/05 03:43:09;;;;;;;135.35;48.50;;;1.90;99.90;;;;;;4919544;29;20127;-87
2021/03/05 03:45:44;;;;;;;120.07;47.47;;;1.90;99.90;;;;;;4927456;29;20130;-88
2021/03/05 03:48:14;;;;;;;117.80;46.05;;;1.90;99.90;;;;;;4922077;29;20074;-87
2021/03/05 03:50:59;;;;;;;123.68;47.00;;;1.90;99.90;;;;;;4921618;29;20107;-87
2021/03/05 03:53:26;;;;;;;125.60;47.35;;;2.00;99.90;;;;;;4927648;29;20047;-86
2021/03/05 03:55:54;;;;;;;129.10;48.83;;;2.00;99.90;;;;;;4922712;29;20394;-88
2021/03/05 03:58:24;;;;;;;133.77;50.58;;;2.00;99.90;;;;;;4932156;29;20052;-86
2021/03/05 04:01:11;;;;;;;133.20;49.53;;;2.00;99.90;;;;;;4927316;29;20052;-88
2021/03/05 04:03:42;;;;;;;118.18;47.25;;;2.00;99.90;;;;;;4922677;29;20093;-88
2021/03/05 04:06:11;;;;;;;114.38;47.33;;;2.00;99.90;;;;;;4924015;29;20188;-86
2021/03/05 04:08:41;;;;;;;118.60;47.50;;;2.00;99.90;;;;;;4931887;29;20123;-88
2021/03/05 04:11:09;;;;;;;106.38;44.40;;;2.00;99.90;;;;;;4937293;29;20095;-88
2021/03/05 04:13:40;;;;;;;103.93;42.10;;;2.00;99.90;;;;;;4937588;29;20129;-88
2021/03/05 04:16:09;;;;;;;111.47;43.70;;;2.10;99.90;;;;;;4934134;29;20394;-87
2021/03/05 04:18:38;;;;;;;103.40;41.83;;;2.00;99.90;;;;;;4927788;29;20061;-89
2021/03/05 04:21:11;;;;;;;104.18;42.67;;;2.00;99.90;;;;;;4924409;29;20127;-88
2021/03/05 04:23:38;;;;;;;101.55;41.13;;;2.00;99.90;;;;;;4919267;29;20048;-87
2021/03/05 04:26:04;;;;;;;112.13;43.67;;;2.00;99.90;;;;;;4918060;29;20134;-87
2021/03/05 04:28:31;;;;;;;90.07;38.22;;;2.10;99.90;;;;;;4908123;29;20044;-87
2021/03/05 04:31:00;;;;;;;91.78;40.10;;;2.10;99.90;;;;;;4936009;29;20051;-87
2021/03/05 04:33:27;;;;;;;86.60;36.92;;;2.00;99.90;;;;;;4938424;29;20134;-87
2021/03/05 04:35:55;;;;;;;82.35;36.80;;;2.10;99.90;;;;;;4946107;29;20130;-88
2021/03/05 04:38:21;;;;;;;80.13;36.03;;;2.00;99.90;;;;;;4927295;29;20063;-88
2021/03/05 04:40:48;;;;;;;78.68;34.28;;;2.00;99.90;;;;;;4936288;29;20115;-88
2021/03/05 04:43:16;;;;;;;83.55;35.75;;;2.00;99.90;;;;;;4921581;29;20051;-87
2021/03/05 04:45:43;;;;;;;81.38;35.40;;;2.00;99.90;;;;;;4932841;29;20489;-87
2021/03/05 04:48:10;;;;;;;78.70;35.30;;;1.90;99.90;;;;;;4929878;29;20044;-87
2021/03/05 04:50:37;;;;;;;76.18;34.50;;;1.90;99.90;;;;;;4935060;29;20480;-88
2021/03/05 04:53:04;;;;;;;82.85;35.80;;;1.90;99.90;;;;;;4933859;29;20047;-88
2021/03/05 04:55:34;;;;;;;83.55;35.67;;;1.90;99.90;;;;;;4946927;29;20044;-87
2021/03/05 04:58:04;;;;;;;75.95;33.63;;;1.80;99.90;;;;;;4926416;29;20115;-87
2021/03/05 05:00:33;;;;;;;81.18;36.63;;;1.80;99.90;;;;;;4934014;29;20134;-88
2021/03/05 05:03:00;;;;;;;78.43;35.58;;;1.80;99.90;;;;;;4922506;29;20052;-87
2021/03/05 05:05:26;;;;;;;77.10;33.85;;;1.80;99.90;;;;;;4929775;29;20147;-87
2021/03/05 05:07:55;;;;;;;76.65;35.05;;;1.80;99.90;;;;;;4930314;29;20044;-88
2021/03/05 05:10:23;;;;;;;79.57;36.25;;;1.80;99.90;;;;;;4926080;29;20110;-87
2021/03/05 05:12:51;;;;;;;87.97;38.72;;;1.80;99.90;;;;;;4903926;29;20330;-88
2021/03/05 05:15:17;;;;;;;86.47;38.05;;;1.90;99.90;;;;;;4923053;29;20130;-86
2021/03/05 05:17:44;;;;;;;79.35;36.85;;;1.80;99.90;;;;;;4924859;29;20123;-88
2021/03/05 05:20:11;;;;;;;87.50;39.00;;;1.90;99.90;;;;;;4929401;29;20083;-87
2021/03/05 05:22:41;;;;;;;97.93;40.10;;;1.90;99.90;;;;;;4926507;29;20410;-88
2021/03/05 05:25:08;;;;;;;85.38;37.20;;;1.90;99.90;;;;;;4914057;29;20131;-88
2021/03/05 05:27:34;;;;;;;84.70;37.67;;;1.80;99.90;;;;;;4933211;29;20071;-87
2021/03/05 05:30:04;;;;;;;89.13;39.28;;;1.90;99.90;;;;;;4926807;29;20047;-89
2021/03/05 05:33:44;;;;;;;81.60;36.50;;;1.90;99.90;;;;;;4927682;29;20052;-85
2021/03/05 05:36:37;;;;;;;78.75;35.00;;;1.90;99.90;;;;;;4880962;29;20048;-87
2021/03/05 05:39:34;;;;;;;81.07;35.80;;;2.00;99.90;;;;;;4886666;29;20063;-87
2021/03/05 05:42:31;;;;;;;87.20;35.60;;;2.00;99.90;;;;;;4929501;29;20575;-87
2021/03/05 05:45:36;;;;;;;80.93;35.88;;;2.00;99.90;;;;;;4929841;29;20056;-87
2021/03/05 05:48:04;;;;;;;90.88;37.05;;;2.00;99.90;;;;;;4892531;29;20052;-84
2021/03/05 05:50:40;;;;;;;77.90;33.60;;;2.00;99.90;;;;;;4906407;29;20068;-84
2021/03/05 05:53:16;;;;;;;81.70;35.33;;;2.00;99.90;;;;;;4901345;29;20044;-85
2021/03/05 05:55:49;;;;;;;74.72;33.30;;;2.00;99.90;;;;;;4912019;29;20059;-84
2021/03/05 05:58:21;;;;;;;78.07;32.90;;;2.00;99.90;;;;;;4939261;29;20051;-82
2021/03/05 06:00:50;;;;;;;74.43;32.25;;;1.90;99.90;;;;;;4931647;29;20369;-86
2021/03/05 06:03:17;;;;;;;72.80;30.50;;;1.90;99.90;;;;;;4929018;29;20051;-86
2021/03/05 06:05:43;;;;;;;69.18;30.52;;;2.00;99.90;;;;;;4926596;29;20135;-86
2021/03/05 06:08:15;;;;;;;65.55;29.30;;;1.90;99.90;;;;;;4924895;29;20058;-86
2021/03/05 06:10:42;;;;;;;64.20;29.75;;;1.90;99.90;;;;;;4933273;29;20079;-85
2021/03/05 06:13:09;;;;;;;71.65;29.58;;;1.90;99.90;;;;;;4913534;29;20079;-88
2021/03/05 06:15:40;;;;;;;73.63;30.13;;;1.90;99.90;;;;;;4899974;29;20045;-90
2021/03/05 06:18:29;;;;;;;62.45;29.52;;;2.00;99.90;;;;;;4900898;29;20052;-88
2021/03/05 06:20:58;;;;;;;69.40;29.23;;;2.00;99.90;;;;;;4902654;29;20091;-89
2021/03/05 06:23:27;;;;;;;63.75;29.02;;;2.00;99.90;;;;;;4885965;29;20052;-86
2021/03/05 06:26:01;;;;;;;70.38;29.38;;;2.00;99.90;;;;;;4911340;29;20071;-89
2021/03/05 06:28:28;;;;;;;62.97;29.40;;;2.00;99.90;;;;;;4914462;29;20131;-89
2021/03/05 06:30:55;;;;;;;65.47;29.80;;;2.00;99.90;;;;;;4904683;29;20104;-89
2021/03/05 06:33:31;;;;;;;61.67;28.65;;;2.00;99.90;;;;;;4917416;29;20048;-89
2021/03/05 06:36:19;;;;;;;64.07;28.02;;;2.00;99.90;;;;;;4913046;29;20127;-89
2021/03/05 06:38:47;;;;;;;67.00;27.63;;;2.00;99.90;;;;;;4905440;29;20056;-87
2021/03/05 06:41:24;;;;;;;57.75;26.67;;;2.00;99.90;;;;;;4914379;29;20048;-88
2021/03/05 06:43:59;;;;;;;65.32;27.73;;;2.00;99.90;;;;;;4909576;29;20115;-88
2021/03/05 06:46:41;;;;;;;57.75;27.58;;;2.00;99.90;;;;;;4912034;29;20068;-89
2021/03/05 06:49:13;;;;;;;60.75;28.48;;;2.00;99.90;;;;;;4911823;29;20040;-88
2021/03/05 06:52:38;;;;;;;68.68;29.65;;;2.00;99.90;;;;;;4914378;29;20124;-87
2021/03/05 06:55:26;;;;;;;62.10;27.00;;;2.00;99.90;;;;;;4896324;29;20084;-86
2021/03/05 06:57:53;;;;;;;60.05;27.98;;;2.00;99.90;;;;;;4914126;29;20080;-87
2021/03/05 07:00:23;;;;;;;60.35;27.27;;;2.00;99.90;;;;;;4914422;29;20094;-86
2021/03/05 07:02:53;;;;;;;65.97;27.45;;;2.00;99.90;;;;;;4915610;29;20052;-87
2021/03/05 07:05:53;;;;;;;58.72;26.70;;;1.90;99.90;;;;;;4901614;29;20080;-86
2021/03/05 07:08:47;;;;;;;61.22;27.85;;;2.00;99.90;;;;;;4916724;29;20470;-88
2021/03/05 07:11:40;;;;;;;57.85;25.95;;;2.00;99.90;;;;;;4920619;29;20083;-86
2021/03/05 07:14:09;;;;;;;60.00;27.30;;;2.00;99.90;;;;;;4925833;29;20052;-83
2021/03/05 07:16:41;;;;;;;60.47;27.95;;;2.00;99.90;;;;;;4922193;29;20063;-85
2021/03/05 07:19:08;;;;;;;50.75;25.13;;;2.00;99.90;;;;;;4928866;29;20044;-84
2021/03/05 07:21:44;;;;;;;58.95;25.80;;;2.00;99.90;;;;;;4918719;29;20052;-84
2021/03/05 07:24:12;;;;;;;56.35;24.30;;;2.00;99.90;;;;;;4900454;29;20052;-85
2021/03/05 07:26:52;;;;;;;58.33;26.80;;;2.00;99.90;;;;;;4918644;29;20075;-85
2021/03/05 07:29:28;;;;;;;61.13;26.90;;;2.00;99.90;;;;;;4914129;29;20048;-84
2021/03/05 07:31:58;;;;;;;58.33;26.58;;;2.10;99.90;;;;;;4918741;29;20548;-84
2021/03/05 07:34:27;;;;;;;55.47;27.10;;;2.10;99.90;;;;;;4916067;29;20056;-84
2021/03/05 07:37:04;;;;;;;59.97;26.05;;;2.10;99.90;;;;;;4916727;29;20060;-84
2021/03/05 07:39:41;;;;;;;55.88;26.55;;;2.10;99.90;;;;;;4913996;29;20067;-86
2021/03/05 07:42:10;;;;;;;58.40;25.70;;;2.10;99.90;;;;;;4927530;29;20056;-85
2021/03/05 07:44:39;;;;;;;58.30;26.60;;;2.00;99.90;;;;;;4911222;29;20108;-83
2021/03/05 07:47:12;;;;;;;55.88;25.42;;;2.10;99.90;;;;;;4926811;29;20111;-84
2021/03/05 07:49:39;;;;;;;58.83;27.20;;;2.00;99.90;;;;;;4928717;29;20194;-86
2021/03/05 07:52:10;;;;;;;60.78;26.55;;;2.00;99.90;;;;;;4921927;29;20055;-84
2021/03/05 07:55:08;;;;;;;60.72;27.92;;;2.10;99.90;;;;;;4932665;29;20118;-85
2021/03/05 07:57:48;;;;;;;56.50;26.23;;;2.10;99.90;;;;;;4933624;29;20430;-84
2021/03/05 08:00:16;;;;;;;63.33;26.90;;;2.10;99.90;;;;;;4914594;29;20052;-83
2021/03/05 08:02:58;;;;;;;67.53;27.90;;;2.10;99.90;;;;;;4916891;29;20051;-84
2021/03/05 08:05:35;;;;;;;61.03;27.27;;;2.10;99.90;;;;;;4912411;29;20071;-84
2021/03/05 08:08:14;;;;;;;56.83;25.85;;;2.10;99.90;;;;;;4933824;29;20051;-84
2021/03/05 08:10:48;;;;;;;56.90;26.25;;;2.10;99.90;;;;;;4936198;29;20036;-84
2021/03/05 08:16:45;;;;;;;55.97;25.70;;;2.10;99.90;;;;;;4919982;29;20052;-85
2021/03/05 08:19:16;;;;;;;56.33;25.67;;;2.10;99.90;;;;;;4917359;29;20094;-83
2021/03/05 08:21:51;;;;;;;57.10;24.67;;;2.10;99.90;;;;;;4919933;29;20123;-83
2021/03/05 08:24:27;;;;;;;64.35;26.83;;;2.10;99.90;;;;;;4918752;29;20470;-85
2021/03/05 08:26:59;;;;;;;57.15;25.70;;;2.20;99.90;;;;;;4921848;29;20052;-83
2021/03/05 08:29:59;;;;;;;53.17;25.38;;;2.30;99.90;;;;;;4876163;29;20202;-84
2021/03/05 08:35:29;;;;;;;55.05;25.92;;;2.50;99.90;;;;;;4878168;29;20049;-84
2021/03/05 08:38:14;;;;;;;49.63;24.30;;;2.60;99.90;;;;;;4859797;29;20124;-85
2021/03/05 08:41:06;;;;;;;45.60;24.88;;;2.70;99.90;;;;;;4881745;29;20430;-83
2021/03/05 08:43:37;;;;;;;44.45;23.83;;;2.80;99.90;;;;;;4879093;29;20065;-83
2021/03/05 08:46:11;;;;;;;46.25;23.40;;;2.80;99.90;;;;;;4876569;29;20368;-84
2021/03/05 08:48:39;;;;;;;49.08;23.83;;;2.90;99.90;;;;;;4917336;29;20056;-85
2021/03/05 08:51:09;;;;;;;47.03;23.75;;;3.00;99.90;;;;;;4923045;29;20059;-83
2021/03/05 08:53:49;;;;;;;47.28;24.67;;;3.00;99.90;;;;;;4917700;29;20067;-85
2021/03/05 08:56:30;;;;;;;43.15;22.33;;;3.10;99.90;;;;;;4926344;29;20148;-84
2021/03/05 08:59:02;;;;;;;;;;;3.10;99.90;;;;;;4918744;29;20059;-87
2021/03/05 09:05:33;;;;;;;47.30;22.05;;;3.10;99.90;;;;;;4871402;29;20049;-91
2021/03/05 10:14:43;;;;;;;26.88;15.63;;;3.70;99.90;;;;;;4969086;23;20094;-89
2021/03/05 10:17:15;;;;;;;31.85;14.70;;;3.70;99.90;;;;;;4958861;28;20047;-88
2021/03/05 10:19:48;;;;;;;25.40;15.32;;;3.70;99.90;;;;;;4976997;28;20122;-89
2021/03/05 10:22:17;;;;;;;25.92;15.65;;;3.70;99.90;;;;;;4975711;28;20050;-89
2021/03/05 10:24:55;;;;;;;26.77;14.13;;;3.70;99.90;;;;;;4974113;28;20453;-88
2021/03/05 10:27:23;;;;;;;30.58;15.48;;;3.60;99.90;;;;;;4970672;28;20087;-88
2021/03/05 10:29:58;;;;;;;25.95;14.20;;;3.60;99.90;;;;;;4959980;28;20101;-88
2021/03/05 10:32:28;;;;;;;29.52;14.80;;;3.60;99.90;;;;;;4952117;28;20054;-88
2021/03/05 10:34:57;;;;;;;26.45;15.35;;;3.50;99.90;;;;;;4955631;28;20107;-86
2021/03/05 10:37:25;;;;;;;24.58;14.15;;;3.60;99.90;;;;;;4972492;28;20047;-88
2021/03/05 10:39:52;;;;;;;26.17;14.32;;;3.60;99.90;;;;;;4958313;28;20073;-89
2021/03/05 10:42:21;;;;;;;29.75;14.75;;;3.60;99.90;;;;;;4974540;28;20443;-89
2021/03/05 10:44:51;;;;;;;28.60;14.95;;;3.60;99.90;;;;;;4981389;28;20133;-87
2021/03/05 10:47:22;;;;;;;23.02;14.00;;;3.60;99.90;;;;;;4970691;28;20061;-90
2021/03/05 10:49:51;;;;;;;;;;;3.60;99.90;;;;;;4955591;28;20043;-88
2021/03/05 10:52:22;;;;;;;25.90;14.55;;;3.60;99.90;;;;;;4976153;28;19969;-88
2021/03/05 10:54:52;;;;;;;25.50;13.52;;;3.70;99.90;;;;;;4973917;28;20046;-89
2021/03/05 10:57:22;;;;;;;23.33;13.68;;;3.80;99.90;;;;;;4956387;28;20120;-88
2021/03/05 10:59:51;;;;;;;23.13;14.32;;;3.90;99.90;;;;;;4977462;28;20062;-89
2021/03/05 11:02:19;;;;;;;26.58;14.73;;;4.00;99.90;;;;;;4977157;28;20355;-87
2021/03/05 11:04:48;;;;;;;26.85;14.70;;;4.00;99.90;;;;;;4945872;28;20051;-87
2021/03/05 11:07:15;;;;;;;27.15;13.00;;;4.10;99.90;;;;;;4958313;28;20062;-88
2021/03/05 11:09:44;;;;;;;23.65;13.65;;;4.20;99.90;;;;;;4973131;28;20043;-89
2021/03/05 11:12:13;;;;;;;30.05;14.75;;;4.30;99.90;;;;;;4972737;28;20051;-89
2021/03/05 11:15:04;;;;;;;26.58;14.82;;;4.40;99.90;;;;;;4957356;28;20051;-88
2021/03/05 11:17:33;;;;;;;26.13;14.15;;;4.40;99.90;;;;;;4971461;28;20535;-88
2021/03/05 11:20:10;;;;;;;22.00;14.00;;;4.40;99.90;;;;;;4973424;28;20448;-88
2021/03/05 11:22:54;;;;;;;21.95;13.95;;;4.40;99.90;;;;;;4973374;28;20047;-88
2021/03/05 11:25:24;;;;;;;25.95;14.25;;;4.40;99.90;;;;;;4969862;28;20538;-87
2021/03/05 11:27:50;;;;;;;23.45;13.50;;;4.30;99.90;;;;;;4969770;28;20054;-88
2021/03/05 11:30:18;;;;;;;21.90;13.18;;;4.20;99.90;;;;;;4939908;28;20126;-89
2021/03/05 11:32:46;;;;;;;25.60;14.20;;;4.20;99.90;;;;;;4966277;28;20051;-88
2021/03/05 11:35:27;;;;;;;22.80;13.55;;;4.10;99.90;;;;;;4972977;28;20051;-87
2021/03/05 11:37:54;;;;;;;25.08;12.77;;;4.10;99.90;;;;;;4950395;28;20042;-89
2021/03/05 11:40:21;;;;;;;26.30;14.30;;;4.10;99.90;;;;;;4975731;28;20054;-88
2021/03/05 11:42:47;;;;;;;27.48;14.45;;;4.10;99.90;;;;;;4958453;28;20134;-88
2021/03/05 11:45:24;;;;;;;22.88;13.82;;;4.00;99.90;;;;;;4958376;28;20051;-87
2021/03/05 11:47:50;;;;;;;27.17;14.63;;;3.90;99.90;;;;;;4954967;28;20055;-86
2021/03/05 11:54:32;;;;;;;22.73;14.15;;;3.80;99.90;;;;;;4945315;28;20050;-90
2021/03/05 11:58:00;;;;;;;;;;;;;;;;;;;;;
2021/03/05 12:00:56;;;;;;;;;;;;;;;;;;;;;
2021/03/05 12:07:54;;;;;;;24.95;13.73;;;3.90;99.90;;;;;;4816820;29;20204;-89
2021/03/05 12:10:44;;;;;;;27.63;13.75;;;3.80;99.90;;;;;;4839235;29;20050;-89
2021/03/05 12:13:59;;;;;;;;;;;;;;;;;;;;;
2021/03/05 12:20:47;;;;;;;30.02;15.95;;;3.80;99.90;;;;;;4787683;29;20085;-90
2021/03/05 12:27:55;;;;;;;27.52;15.43;;;3.60;99.90;;;;;;4753414;30;20066;-90
2021/03/05 12:45:11;;;;;;;;;;;;;;;;;;;;;
2021/03/05 12:48:23;;;;;;;24.25;14.77;;;4.10;99.90;;;;;;5074559;28;20056;-91
2021/03/05 12:55:26;;;;;;;;;;;;;;;;;;;;;
2021/03/05 12:58:39;;;;;;;28.25;16.30;;;3.70;99.90;;;;;;5007868;28;20054;-89
2021/03/05 13:02:00;;;;;;;;;;;;;;;;;;;;;
2021/03/05 13:05:08;;;;;;;;;;;;;;;;;;;;;
2021/03/05 13:16:17;;;;;;;;;;;;;;;;;;;;;
2021/03/05 13:20:12;;;;;;;;;;;;;;;;;;;;;
2021/03/05 13:33:00;;;;;;;27.15;15.93;;;4.20;99.90;;;;;;5004371;28;20042;-91
2021/03/05 13:35:52;;;;;;;27.40;15.68;;;4.20;99.90;;;;;;5004494;28;20459;-90
2021/03/05 13:39:28;;;;;;;;;;;;;;;;;;;;;
2021/03/05 13:53:29;;;;;;;19.23;11.25;;;4.90;99.90;;;;;;1378579;22;20971;-85
2021/03/05 15:58:24;;;;;;;27.83;17.10;;;2.80;99.90;;;;;;6083574;22;4757452;-88
2021/03/05 16:00:51;;;;;;;35.10;18.33;;;2.80;99.90;;;;;;6228113;23;20016;-89
2021/03/05 16:03:22;;;;;;;39.75;20.73;;;2.80;99.90;;;;;;6230810;23;20034;-89
2021/03/05 16:06:06;;;;;;;;;;;;;;;;;;;;;
2021/03/05 17:27:12;;;;;;;;;;;;;;;;;;;;;
2021/03/05 17:30:47;;;;;;;;;;;;;;;;;;;;;
2021/03/05 17:33:53;;;;;;;13.73;7.95;;;1.70;99.90;;;;;;6050376;23;20023;-89
2021/03/05 17:38:22;;;;;;;;;;;;;;;;;;;;;
2021/03/05 17:41:09;;;;;;;;;;;;;;;;;;;;;
2021/03/05 17:47:24;;;;;;;;;;;;;;;;;;;;;
2021/03/05 17:50:12;;;;;;;17.75;10.23;;;1.70;99.90;;;;;;5984415;23;20190;-88
2021/03/05 17:53:05;;;;;;;15.13;10.27;;;1.70;99.90;;;;;;6030565;23;20022;-91
2021/03/05 17:55:41;;;;;;;16.33;9.50;;;1.70;99.90;;;;;;6074871;23;20102;-89
2021/03/05 17:58:14;;;;;;;16.30;9.70;;;1.70;99.90;;;;;;6073429;23;20036;-89
2021/03/05 18:00:47;;;;;;;15.70;10.00;;;1.70;99.90;;;;;;6096941;23;20022;-89
2021/03/05 18:03:28;;;;;;;25.27;13.75;;;1.70;99.90;;;;;;6113073;23;20086;-91
2021/03/05 18:06:09;;;;;;;21.05;11.93;;;1.70;99.90;;;;;;6194216;23;20028;-88
2021/03/05 18:08:38;;;;;;;18.80;11.50;;;1.70;99.90;;;;;;6217752;23;20020;-88
2021/03/05 18:11:59;;;;;;;;;;;;;;;;;;;;;
2021/03/05 18:19:26;;;;;;;;;;;;;;;;;;;;;
2021/03/05 18:26:20;;;;;;;;;;;;;;;;;;;;;
2021/03/05 18:36:19;;;;;;;;;;;;;;;;;;;;;
2021/03/05 18:40:16;;;;;;;21.02;12.15;;;1.70;99.90;;;;;;5944021;24;20039;-90
2021/03/05 18:42:43;;;;;;;22.33;13.45;;;1.60;99.90;;;;;;6024721;23;20101;-91
2021/03/05 18:45:14;;;;;;;22.95;14.05;;;1.60;99.90;;;;;;6127560;23;20018;-89
2021/03/05 18:48:40;;;;;;;21.42;13.32;;;1.60;99.90;;;;;;6132190;23;20082;-90
2021/03/05 18:51:01;;;;;;;22.42;11.88;;;1.60;99.90;;;;;;6111922;23;20050;-88
2021/03/05 18:53:28;;;;;;;23.58;12.98;;;1.60;99.90;;;;;;6100853;23;20022;-85
2021/03/05 18:55:56;;;;;;;20.60;12.40;;;1.60;99.90;;;;;;6125333;23;20077;-87
2021/03/05 18:58:37;;;;;;;21.35;12.50;;;1.60;99.90;;;;;;6125546;23;20093;-87
2021/03/05 19:01:04;;;;;;;20.70;12.95;;;1.60;99.90;;;;;;6125111;23;20025;-85
2021/03/05 19:03:38;;;;;;;22.17;13.50;;;1.60;99.90;;;;;;6125178;23;20328;-87
2021/03/05 19:06:06;;;;;;;22.48;13.10;;;1.60;99.90;;;;;;6124891;23;20121;-87
2021/03/05 19:08:33;;;;;;;18.13;12.38;;;1.60;99.90;;;;;;6100355;23;20025;-85
2021/03/05 19:11:00;;;;;;;19.83;12.23;;;1.60;99.90;;;;;;6160000;23;20036;-85
2021/03/05 19:13:27;;;;;;;18.15;11.63;;;1.50;99.90;;;;;;6186695;23;20041;-85
2021/03/05 19:15:55;;;;;;;20.60;11.65;;;1.50;99.90;;;;;;6187203;23;20017;-87
2021/03/05 19:18:22;;;;;;;21.23;12.95;;;1.50;99.90;;;;;;6187722;23;20423;-88
2021/03/05 19:20:49;;;;;;;21.08;12.38;;;1.40;99.90;;;;;;6186414;23;20025;-88
2021/03/05 19:23:17;;;;;;;19.85;12.35;;;1.30;99.90;;;;;;6186400;23;20025;-86
2021/03/05 19:25:47;;;;;;;22.38;12.52;;;1.30;99.90;;;;;;6188621;23;20052;-86
2021/03/05 19:28:14;;;;;;;24.00;13.38;;;1.30;99.90;;;;;;6187134;23;20028;-89
2021/03/05 19:30:41;;;;;;;22.40;13.55;;;1.20;99.90;;;;;;6197325;23;20324;-87
2021/03/05 19:33:07;;;;;;;22.52;13.02;;;1.20;99.90;;;;;;6200257;23;20032;-87
2021/03/05 19:35:36;;;;;;;21.95;12.98;;;1.10;99.90;;;;;;6195216;23;20091;-87
2021/03/05 19:38:06;;;;;;;26.23;13.43;;;1.00;99.90;;;;;;6192229;23;20052;-86
2021/03/05 19:40:34;;;;;;;21.98;13.38;;;1.00;99.90;;;;;;6190328;23;20040;-86
2021/03/05 19:43:01;;;;;;;23.98;13.40;;;0.90;99.90;;;;;;6167462;23;20494;-86
2021/03/05 19:45:31;;;;;;;30.30;16.23;;;0.80;99.90;;;;;;6187569;23;20072;-85
2021/03/05 19:47:58;;;;;;;23.15;12.70;;;0.70;99.90;;;;;;6187333;23;20028;-85